createdAt,value
2022-11-06T00:03:04.225Z,19.90
2022-11-06T00:06:22.056Z,24.00
2022-11-06T00:09:27.187Z,25.98
2022-11-06T00:12:35.214Z,25.58
2022-11-06T00:15:40.404Z,22.48
2022-11-06T00:18:46.100Z,23.63
2022-11-06T00:21:51.236Z,29.08
2022-11-06T00:24:56.440Z,26.33
2022-11-06T00:28:04.233Z,24.48
2022-11-06T00:31:10.138Z,23.50
2022-11-06T00:34:16.338Z,25.85
2022-11-06T00:37:21.575Z,25.25
2022-11-06T00:40:26.725Z,26.50
2022-11-06T00:43:36.015Z,24.77
2022-11-06T00:46:41.076Z,26.40
2022-11-06T00:49:46.067Z,26.15
2022-11-06T00:52:51.260Z,24.08
2022-11-06T00:55:56.257Z,21.00
2022-11-06T00:59:05.477Z,23.40
2022-11-06T01:02:10.881Z,24.67
2022-11-06T01:05:16.671Z,25.40
2022-11-06T01:08:22.111Z,23.75
2022-11-06T01:11:29.545Z,23.33
2022-11-06T01:14:42.174Z,19.38
2022-11-06T01:17:47.315Z,20.73
2022-11-06T01:20:52.519Z,21.25
2022-11-06T01:23:58.601Z,19.90
2022-11-06T01:30:31.507Z,13.27
2022-11-06T01:33:36.700Z,13.90
2022-11-06T01:36:42.056Z,15.63
2022-11-06T01:39:47.259Z,14.38
2022-11-06T01:42:52.357Z,14.50
2022-11-06T01:46:00.425Z,14.02
2022-11-06T01:49:07.873Z,17.20
2022-11-06T01:52:14.760Z,15.27
2022-11-06T01:55:21.970Z,12.63
2022-11-06T01:58:28.716Z,13.35
2022-11-06T02:01:36.860Z,14.77
2022-11-06T02:07:47.853Z,13.27
2022-11-06T02:10:53.645Z,17.98
2022-11-06T02:14:03.990Z,16.98
2022-11-06T02:17:15.221Z,14.57
2022-11-06T02:20:24.736Z,18.27
2022-11-06T02:23:45.232Z,23.02
2022-11-06T02:27:04.231Z,14.70
2022-11-06T02:30:11.171Z,16.33
2022-11-06T02:33:18.654Z,18.30
2022-11-06T02:36:26.278Z,14.77
2022-11-06T02:39:33.219Z,17.17
2022-11-06T02:42:43.551Z,16.80
2022-11-06T02:45:50.729Z,14.57
2022-11-06T02:48:57.681Z,16.88
2022-11-06T02:52:05.051Z,15.48
2022-11-06T02:55:12.396Z,14.82
2022-11-06T02:58:22.159Z,16.60
2022-11-06T03:01:30.557Z,16.52
2022-11-06T03:04:36.845Z,17.67
2022-11-06T03:07:45.279Z,18.83
2022-11-06T03:10:54.327Z,20.55
2022-11-06T03:14:05.714Z,18.63
2022-11-06T03:17:14.287Z,15.82
2022-11-06T03:20:23.777Z,17.85
2022-11-06T03:23:31.932Z,18.05
2022-11-06T03:26:39.302Z,17.45
2022-11-06T03:29:49.504Z,18.57
2022-11-06T03:32:57.704Z,18.23
2022-11-06T03:36:05.150Z,19.35
2022-11-06T03:39:12.973Z,21.42
2022-11-06T03:42:20.725Z,19.85
2022-11-06T03:45:29.663Z,22.42
2022-11-06T03:48:36.772Z,23.80
2022-11-06T03:51:44.079Z,17.65
2022-11-06T03:54:51.116Z,20.43
2022-11-06T03:57:58.355Z,19.55
2022-11-06T04:01:07.013Z,20.40
2022-11-06T04:04:14.356Z,17.50
2022-11-06T04:07:20.670Z,18.65
2022-11-06T04:10:38.448Z,18.63
2022-11-06T04:13:56.708Z,14.87
2022-11-06T04:17:06.800Z,15.88
2022-11-06T04:20:33.957Z,17.40
2022-11-06T04:23:44.482Z,16.40
2022-11-06T04:26:53.408Z,18.30
2022-11-06T04:30:06.009Z,16.92
2022-11-06T04:33:17.575Z,15.43
2022-11-06T04:36:25.565Z,18.08
2022-11-06T04:39:32.938Z,15.68
2022-11-06T04:42:40.262Z,21.88
2022-11-06T04:45:47.457Z,14.77
2022-11-06T04:48:55.531Z,17.83
2022-11-06T04:52:01.126Z,16.95
2022-11-06T04:55:06.642Z,16.90
2022-11-06T04:58:12.167Z,17.45
2022-11-06T05:01:17.670Z,14.38
2022-11-06T05:04:25.580Z,19.00
2022-11-06T05:07:30.784Z,18.20
2022-11-06T05:10:36.066Z,15.98
2022-11-06T05:13:41.272Z,15.00
2022-11-06T05:16:46.384Z,17.77
2022-11-06T05:19:54.234Z,25.05
2022-11-06T05:23:00.979Z,17.05
2022-11-06T05:26:06.265Z,17.80
2022-11-06T05:29:11.511Z,18.35
2022-11-06T05:32:16.672Z,15.30
2022-11-06T05:35:24.545Z,14.35
2022-11-06T05:38:29.910Z,17.73
2022-11-06T05:41:34.923Z,18.08
2022-11-06T05:44:40.532Z,17.52
2022-11-06T05:47:45.703Z,21.80
2022-11-06T05:50:53.773Z,17.02
2022-11-06T05:53:59.677Z,20.63
2022-11-06T05:57:04.784Z,19.63
2022-11-06T06:00:11.196Z,20.92
2022-11-06T06:03:21.690Z,20.05
2022-11-06T06:06:29.555Z,24.27
2022-11-06T06:09:35.637Z,23.80
2022-11-06T06:12:40.890Z,20.27
2022-11-06T06:15:46.628Z,26.40
2022-11-06T06:18:52.271Z,28.08
2022-11-06T06:22:00.193Z,24.08
2022-11-06T06:25:07.596Z,27.00
2022-11-06T06:28:17.729Z,23.88
2022-11-06T06:31:22.777Z,26.02
2022-11-06T06:34:28.077Z,25.98
2022-11-06T06:37:35.697Z,30.58
2022-11-06T06:40:41.106Z,26.03
2022-11-06T06:43:46.068Z,32.83
2022-11-06T06:46:51.426Z,25.00
2022-11-06T06:49:56.665Z,30.48
2022-11-06T06:53:04.515Z,29.98
2022-11-06T06:56:10.128Z,31.93
2022-11-06T06:59:15.280Z,29.50
2022-11-06T07:02:20.593Z,34.00
2022-11-06T07:05:25.789Z,29.90
2022-11-06T07:08:33.927Z,27.98
2022-11-06T07:11:38.943Z,26.00
2022-11-06T07:14:44.318Z,31.50
2022-11-06T07:17:49.502Z,31.00
2022-11-06T07:20:54.585Z,28.33
2022-11-06T07:24:02.315Z,31.30
2022-11-06T07:27:07.670Z,25.92
2022-11-06T07:30:13.715Z,29.30
2022-11-06T07:33:18.955Z,31.67
2022-11-06T07:36:24.130Z,31.02
2022-11-06T07:39:31.996Z,26.50
2022-11-06T07:42:40.789Z,32.53
2022-11-06T07:45:52.557Z,31.02
2022-11-06T07:48:57.749Z,32.78
2022-11-06T07:52:03.412Z,31.10
2022-11-06T07:55:12.129Z,28.52
2022-11-06T07:58:17.511Z,28.77
2022-11-06T08:01:22.845Z,31.38
2022-11-06T08:04:28.157Z,27.77
2022-11-06T08:07:33.123Z,35.28
2022-11-06T08:10:44.103Z,27.58
2022-11-06T08:13:49.381Z,26.67
2022-11-06T08:16:55.821Z,23.42
2022-11-06T08:20:01.012Z,26.73
2022-11-06T08:23:06.816Z,25.75
2022-11-06T08:26:14.516Z,25.38
2022-11-06T08:29:19.783Z,26.15
2022-11-06T08:32:24.986Z,25.08
2022-11-06T08:35:30.056Z,23.40
2022-11-06T08:38:35.134Z,24.70
2022-11-06T08:41:42.895Z,25.33
2022-11-06T08:44:48.412Z,22.98
2022-11-06T08:47:53.545Z,22.63
2022-11-06T08:50:58.757Z,22.95
2022-11-06T08:54:04.026Z,30.05
2022-11-06T08:57:12.103Z,25.77
2022-11-06T09:00:18.121Z,24.85
2022-11-06T09:03:23.386Z,26.90
2022-11-06T09:06:28.517Z,25.48
2022-11-06T09:09:35.044Z,22.35
2022-11-06T09:12:42.714Z,24.70
2022-11-06T09:15:48.148Z,25.90
2022-11-06T09:18:53.457Z,26.33
2022-11-06T09:21:58.709Z,26.85
2022-11-06T09:25:04.652Z,25.98
2022-11-06T09:28:12.884Z,25.10
2022-11-06T09:31:17.842Z,30.70
2022-11-06T09:34:22.978Z,28.60
2022-11-06T09:37:28.006Z,28.10
2022-11-06T09:40:34.760Z,27.25
2022-11-06T09:44:05.884Z,24.85
2022-11-06T09:47:16.868Z,28.92
2022-11-06T09:50:24.818Z,28.55
2022-11-06T09:53:33.745Z,25.13
2022-11-06T09:56:41.582Z,28.73
2022-11-06T09:59:50.092Z,27.30
2022-11-06T10:02:56.159Z,27.70
2022-11-06T10:06:01.778Z,23.67
2022-11-06T10:09:09.446Z,26.10
2022-11-06T10:12:17.126Z,26.15
2022-11-06T10:15:27.931Z,29.52
2022-11-06T10:18:38.432Z,28.02
2022-11-06T10:21:49.704Z,25.88
2022-11-06T10:25:00.828Z,30.13
2022-11-06T10:28:07.108Z,29.02
2022-11-06T10:31:18.327Z,27.92
2022-11-06T10:34:25.480Z,25.75
2022-11-06T10:37:32.387Z,26.95
2022-11-06T10:40:38.389Z,27.65
2022-11-06T10:43:46.932Z,29.25
2022-11-06T10:50:00.643Z,24.73
2022-11-06T10:53:07.919Z,27.58
2022-11-06T10:56:30.604Z,23.23
2022-11-06T10:59:36.088Z,26.00
2022-11-06T11:02:42.889Z,30.48
2022-11-06T11:05:50.689Z,30.52
2022-11-06T11:08:56.034Z,28.88
2022-11-06T11:12:01.356Z,25.77
2022-11-06T11:15:13.741Z,25.10
2022-11-06T11:18:21.101Z,29.30
2022-11-06T11:21:29.712Z,25.20
2022-11-06T11:24:35.315Z,25.95
2022-11-06T11:27:41.439Z,24.83
2022-11-06T11:30:53.807Z,24.10
2022-11-06T11:34:00.417Z,28.58
2022-11-06T11:37:09.156Z,27.75
2022-11-06T11:40:36.581Z,25.50
2022-11-06T11:43:41.716Z,25.97
2022-11-06T11:46:50.106Z,26.92
2022-11-06T11:49:55.292Z,24.98
2022-11-06T11:53:10.191Z,34.90
2022-11-06T11:56:36.204Z,24.20
2022-11-06T11:59:46.285Z,26.10
2022-11-06T12:02:52.183Z,31.07
2022-11-06T12:05:57.605Z,31.17
2022-11-06T12:09:05.464Z,26.30
2022-11-06T12:12:22.105Z,31.38
2022-11-06T12:15:30.455Z,23.30
2022-11-06T12:21:43.216Z,24.65
2022-11-06T12:24:55.862Z,27.08
2022-11-06T12:28:02.153Z,28.50
2022-11-06T12:31:09.675Z,26.08
2022-11-06T12:34:17.822Z,26.00
2022-11-06T12:40:31.784Z,26.10
2022-11-06T12:43:40.239Z,29.27
2022-11-06T12:46:49.228Z,27.83
2022-11-06T12:50:06.032Z,29.45
2022-11-06T12:53:26.875Z,23.85
2022-11-06T12:56:39.100Z,24.10
2022-11-06T12:59:51.568Z,25.98
2022-11-06T13:03:07.172Z,26.55
2022-11-06T13:06:16.087Z,24.65
2022-11-06T13:09:24.108Z,28.35
2022-11-06T13:12:35.654Z,25.38
2022-11-06T13:15:44.437Z,26.90
2022-11-06T13:18:53.448Z,29.98
2022-11-06T13:22:06.324Z,29.67
2022-11-06T13:25:17.579Z,26.83
2022-11-06T13:28:31.662Z,26.63
2022-11-06T13:31:38.879Z,23.80
2022-11-06T13:34:44.726Z,25.67
2022-11-06T13:37:51.583Z,24.92
2022-11-06T13:41:03.322Z,27.25
2022-11-06T13:44:16.315Z,27.23
2022-11-06T13:47:25.397Z,22.45
2022-11-06T13:50:33.294Z,25.48
2022-11-06T13:53:41.855Z,22.85
2022-11-06T14:00:06.974Z,22.27
2022-11-06T14:03:32.807Z,25.02
2022-11-06T14:06:38.903Z,16.83
2022-11-06T14:09:46.644Z,19.27
2022-11-06T14:12:52.311Z,17.60
2022-11-06T14:16:28.284Z,16.67
2022-11-06T14:19:33.632Z,16.85
2022-11-06T14:22:39.397Z,16.13
2022-11-06T14:25:48.616Z,16.65
2022-11-06T14:28:53.639Z,13.30
2022-11-06T14:32:06.868Z,15.52
2022-11-06T14:35:26.922Z,15.27
2022-11-06T14:38:43.057Z,17.33
2022-11-06T14:41:58.204Z,17.40
2022-11-06T14:45:04.508Z,13.88
2022-11-06T14:48:19.198Z,12.95
2022-11-06T14:51:29.179Z,16.83
2022-11-06T14:54:34.791Z,14.52
2022-11-06T14:57:45.994Z,14.57
2022-11-06T15:00:55.250Z,16.15
2022-11-06T15:04:05.285Z,10.73
2022-11-06T15:07:10.935Z,19.48
2022-11-06T15:10:31.063Z,12.18
2022-11-06T15:13:36.190Z,10.80
2022-11-06T15:16:43.867Z,15.27
2022-11-06T15:19:53.002Z,15.02
2022-11-06T15:23:14.046Z,12.30
2022-11-06T15:26:24.205Z,11.90
2022-11-06T15:29:30.252Z,13.68
2022-11-06T15:32:38.823Z,12.07
2022-11-06T15:35:49.895Z,11.70
2022-11-06T15:38:55.140Z,13.32
2022-11-06T15:42:00.955Z,15.30
2022-11-06T15:45:13.051Z,13.13
2022-11-06T15:48:21.788Z,12.32
2022-11-06T15:51:31.277Z,12.73
2022-11-06T15:54:37.406Z,13.23
2022-11-06T15:57:42.570Z,16.17
2022-11-06T16:00:48.593Z,15.65
2022-11-06T16:03:55.265Z,20.83
2022-11-06T16:07:06.075Z,15.88
2022-11-06T16:10:16.337Z,18.60
2022-11-06T16:13:22.243Z,20.63
2022-11-06T16:16:35.747Z,21.48
2022-11-06T16:19:42.870Z,14.88
2022-11-06T16:22:51.161Z,16.73
2022-11-06T16:29:01.963Z,16.38
2022-11-06T16:32:09.425Z,15.68
2022-11-06T16:35:29.502Z,16.95
2022-11-06T16:38:45.098Z,17.42
2022-11-06T16:42:02.671Z,15.95
2022-11-06T16:45:29.143Z,20.88
2022-11-06T16:48:36.220Z,16.05
2022-11-06T16:51:41.377Z,16.60
2022-11-06T16:54:51.213Z,17.40
2022-11-06T16:57:58.104Z,17.55
2022-11-06T17:01:04.191Z,18.45
2022-11-06T17:04:10.088Z,18.95
2022-11-06T17:07:20.837Z,21.80
2022-11-06T17:10:44.150Z,21.60
2022-11-06T17:13:52.444Z,15.75
2022-11-06T17:20:04.225Z,15.65
2022-11-06T17:23:14.975Z,18.15
2022-11-06T17:26:23.883Z,17.92
2022-11-06T17:29:33.935Z,22.65
2022-11-06T17:32:38.935Z,21.02
2022-11-06T17:35:44.741Z,20.73
2022-11-06T17:38:50.212Z,21.25
2022-11-06T17:41:55.941Z,18.40
2022-11-06T17:45:03.737Z,18.85
2022-11-06T17:48:09.525Z,18.63
2022-11-06T17:51:27.312Z,18.83
2022-11-06T17:54:33.586Z,17.08
2022-11-06T17:57:38.906Z,19.23
2022-11-06T18:00:46.644Z,18.63
2022-11-06T18:03:51.801Z,20.17
2022-11-06T18:06:56.968Z,16.35
2022-11-06T18:10:02.147Z,18.13
2022-11-06T18:13:09.060Z,17.88
2022-11-06T18:16:23.579Z,19.77
2022-11-06T18:19:29.567Z,17.40
2022-11-06T18:22:35.036Z,17.65
2022-11-06T18:25:40.587Z,22.33
2022-11-06T18:28:46.210Z,24.20
2022-11-06T18:31:54.167Z,22.73
2022-11-06T18:34:59.356Z,19.55
2022-11-06T18:38:04.654Z,20.35
2022-11-06T18:41:10.593Z,22.42
2022-11-06T18:44:15.983Z,25.65
2022-11-06T18:47:23.848Z,24.00
2022-11-06T18:50:29.049Z,23.52
2022-11-06T18:53:34.393Z,24.52
2022-11-06T18:56:39.878Z,26.38
2022-11-06T18:59:45.103Z,24.52
2022-11-06T19:02:53.303Z,23.73
2022-11-06T19:05:58.651Z,25.23
2022-11-06T19:09:03.883Z,26.75
2022-11-06T19:12:09.359Z,25.75
2022-11-06T19:15:14.636Z,27.42
2022-11-06T19:18:22.438Z,28.58
2022-11-06T19:21:28.688Z,31.40
2022-11-06T19:24:35.038Z,24.92
2022-11-06T19:27:40.334Z,27.67
2022-11-06T19:30:45.722Z,28.52
2022-11-06T19:33:53.804Z,28.25
2022-11-06T19:36:58.924Z,27.88
2022-11-06T19:40:06.067Z,26.90
2022-11-06T19:43:11.765Z,25.77
2022-11-06T19:46:23.384Z,26.90
2022-11-06T19:49:33.853Z,26.60
2022-11-06T19:52:41.344Z,29.13
2022-11-06T19:55:49.638Z,25.80
2022-11-06T19:58:54.990Z,26.13
2022-11-06T20:02:00.532Z,25.88
2022-11-06T20:05:09.181Z,25.13
2022-11-06T20:08:14.722Z,24.00
2022-11-06T20:11:20.533Z,24.83
2022-11-06T20:14:25.511Z,25.83
2022-11-06T20:17:30.937Z,24.48
2022-11-06T20:20:38.577Z,21.45
2022-11-06T20:23:43.714Z,25.20
2022-11-06T20:26:48.750Z,24.15
2022-11-06T20:29:53.941Z,24.70
2022-11-06T20:32:59.166Z,22.70
2022-11-06T20:36:14.791Z,27.63
2022-11-06T20:39:19.948Z,29.15
2022-11-06T20:42:25.246Z,24.33
2022-11-06T20:45:30.842Z,21.10
2022-11-06T20:48:37.172Z,23.92
2022-11-06T20:52:12.209Z,25.63
2022-11-06T20:55:10.705Z,21.15
2022-11-06T20:58:17.120Z,23.55
2022-11-06T21:01:23.393Z,21.50
2022-11-06T21:04:28.776Z,22.95
2022-11-06T21:07:36.598Z,20.90
2022-11-06T21:10:42.032Z,21.50
2022-11-06T21:13:48.439Z,21.73
2022-11-06T21:16:54.511Z,21.67
2022-11-06T21:19:59.511Z,22.45
2022-11-06T21:23:09.448Z,18.88
2022-11-06T21:26:15.371Z,20.15
2022-11-06T21:29:20.454Z,22.70
2022-11-06T21:32:25.472Z,20.73
2022-11-06T21:35:31.273Z,21.90
2022-11-06T21:38:39.196Z,20.40
2022-11-06T21:41:44.726Z,21.13
2022-11-06T21:44:50.257Z,22.77
2022-11-06T21:47:55.256Z,23.52
2022-11-06T21:51:00.721Z,18.50
2022-11-06T21:54:21.200Z,16.77
2022-11-06T21:57:26.252Z,18.48
2022-11-06T22:00:31.262Z,20.35
2022-11-06T22:03:36.853Z,19.67
2022-11-06T22:06:42.817Z,18.77
2022-11-06T22:09:50.879Z,18.98
2022-11-06T22:12:55.906Z,18.02
2022-11-06T22:16:03.786Z,21.23
2022-11-06T22:19:09.739Z,17.08
2022-11-06T22:22:14.980Z,18.05
2022-11-06T22:25:23.484Z,21.73
2022-11-06T22:31:33.938Z,22.52
2022-11-06T22:34:39.117Z,21.52
2022-11-06T22:37:44.397Z,20.52
2022-11-06T22:40:58.684Z,23.25
2022-11-06T22:44:04.140Z,16.65
2022-11-06T22:47:09.631Z,22.92
2022-11-06T22:50:14.974Z,20.60
2022-11-06T22:53:20.490Z,23.75
2022-11-06T22:56:29.472Z,21.08
2022-11-06T22:59:34.545Z,22.58
2022-11-06T23:02:39.552Z,24.58
2022-11-06T23:05:44.804Z,24.63
2022-11-06T23:08:49.779Z,25.77
2022-11-06T23:11:57.599Z,24.60
2022-11-06T23:15:03.105Z,20.73
2022-11-06T23:18:08.517Z,23.95
2022-11-06T23:21:14.806Z,23.77
2022-11-06T23:24:20.066Z,22.92
2022-11-06T23:27:28.006Z,21.90
2022-11-06T23:30:33.338Z,27.67
2022-11-06T23:33:39.018Z,23.73
2022-11-06T23:36:44.250Z,21.55
2022-11-06T23:39:49.487Z,22.75
2022-11-06T23:42:57.861Z,23.58
2022-11-06T23:49:05.292Z,23.90
2022-11-06T23:52:10.292Z,20.67
2022-11-06T23:55:15.677Z,25.35
2022-11-06T23:58:23.476Z,24.02
